Time;durP1;ratioP1;P1;durP2;ratioP2;P2;SDS_P1;SDS_P2;PMS_P1;PMS_P2;Temp;Humidity;BMP_temperature;BMP_pressure;BME280_temperature;BME280_humidity;BME280_pressure;Samples;Min_cycle;Max_cycle;Signal;HPM_P1;HPM_P2
2022/10/06 00:02:13;;;;;;;2.50;2.30;;;;;;;20.72;38.67;96272.00;6164825;28;102929;-71
2022/10/06 00:05:16;;;;;;;2.90;2.40;;;;;;;20.72;38.37;96279.19;6163832;28;103510;-69
2022/10/06 00:08:19;;;;;;;2.47;2.27;;;;;;;20.73;38.65;96283.44;6170609;28;103938;-70
2022/10/06 00:11:24;;;;;;;2.90;2.70;;;;;;;20.72;38.52;96279.19;6171534;28;103284;-69
2022/10/06 00:14:28;;;;;;;2.23;2.03;;;;;;;20.71;38.76;96273.06;6177633;28;103207;-69
2022/10/06 00:17:31;;;;;;;2.60;2.40;;;;;;;20.73;38.60;96275.47;6161178;28;103845;-69
2022/10/06 00:20:34;;;;;;;2.20;2.00;;;;;;;20.70;38.66;96270.66;6177960;28;103435;-69
2022/10/06 00:23:37;;;;;;;2.23;2.03;;;;;;;20.69;38.53;96264.56;6179938;28;104270;-70
2022/10/06 00:26:41;;;;;;;2.43;2.23;;;;;;;20.70;38.85;96262.69;6168041;28;103740;-69
2022/10/06 00:29:44;;;;;;;2.77;2.30;;;;;;;20.71;38.65;96272.28;6166624;28;104220;-68
2022/10/06 00:32:52;;;;;;;2.10;1.90;;;;;;;20.66;38.64;96259.75;6181635;28;103236;-68
2022/10/06 00:35:59;;;;;;;2.70;2.00;;;;;;;20.65;38.63;96266.13;6169295;28;103396;-69
2022/10/06 00:39:03;;;;;;;2.83;2.33;;;;;;;20.66;38.71;96265.06;6159139;28;103391;-69
2022/10/06 00:42:21;;;;;;;3.97;2.33;;;;;;;20.65;38.41;96257.34;6163494;28;103233;-69
2022/10/06 00:45:30;;;;;;;2.00;1.80;;;;;;;20.66;38.43;96254.44;6177504;28;104255;-69
2022/10/06 00:48:33;;;;;;;2.03;1.93;;;;;;;20.65;38.27;96258.16;6171750;28;103065;-68
2022/10/06 00:51:39;;;;;;;1.80;1.70;;;;;;;20.63;38.76;96253.09;6156917;28;105380;-68
2022/10/06 00:54:42;;;;;;;2.17;1.90;;;;;;;20.63;38.53;96245.13;6165014;28;105041;-69
2022/10/06 00:57:47;;;;;;;2.10;1.90;;;;;;;20.65;38.77;96241.41;6183467;28;103536;-69
2022/10/06 01:00:53;;;;;;;2.73;1.83;;;;;;;20.63;38.32;96233.69;6157822;28;103554;-69
2022/10/06 01:04:00;;;;;;;2.47;2.27;;;;;;;20.63;38.53;96233.69;6169211;28;103415;-70
2022/10/06 01:07:04;;;;;;;1.90;1.80;;;;;;;20.63;38.45;96233.69;6172099;28;103502;-70
2022/10/06 01:10:08;;;;;;;2.20;2.00;;;;;;;20.63;38.30;96231.03;6176304;28;103478;-70
2022/10/06 01:13:14;;;;;;;2.20;2.00;;;;;;;20.64;38.44;96224.66;6172807;28;103218;-68
2022/10/06 01:16:21;;;;;;;2.17;1.97;;;;;;;20.61;38.66;96219.88;6173918;28;103069;-69
2022/10/06 01:19:40;;;;;;;1.90;1.80;;;;;;;20.63;38.14;96213.22;6174117;28;103393;-67
2022/10/06 01:22:46;;;;;;;1.80;1.70;;;;;;;20.57;38.71;96206.31;6179949;28;103142;-69
2022/10/06 01:25:50;;;;;;;2.20;2.00;;;;;;;20.59;38.42;96214.81;6159867;28;106162;-69
2022/10/06 01:28:53;;;;;;;1.87;1.77;;;;;;;20.56;38.21;96202.06;6163436;28;103410;-68
2022/10/06 01:31:56;;;;;;;2.10;1.90;;;;;;;20.57;38.37;96208.97;6159240;28;104179;-67
2022/10/06 01:34:59;;;;;;;1.70;1.60;;;;;;;20.57;38.56;96208.97;6172051;28;104058;-70
2022/10/06 01:38:03;;;;;;;2.10;1.90;;;;;;;20.55;38.48;96208.44;6153828;28;103210;-68
2022/10/06 01:41:06;;;;;;;2.10;1.90;;;;;;;20.54;38.54;96206.84;6169277;28;106219;-69
2022/10/06 01:44:16;;;;;;;1.90;1.80;;;;;;;20.53;38.71;96205.25;6172208;28;105455;-64
2022/10/06 01:47:19;;;;;;;1.80;1.70;;;;;;;20.55;38.45;96205.78;6157160;28;104115;-70
2022/10/06 01:50:22;;;;;;;2.13;1.80;;;;;;;20.54;38.59;96208.72;6158141;28;103420;-70
2022/10/06 01:53:26;;;;;;;3.57;1.83;;;;;;;20.54;38.54;96206.06;6164353;28;103483;-69
2022/10/06 01:56:29;;;;;;;2.10;1.97;;;;;;;20.51;38.42;96211.91;6164541;28;103470;-69
2022/10/06 01:59:32;;;;;;;1.83;1.73;;;;;;;20.53;38.32;96207.13;6153273;28;103295;-69
2022/10/06 02:02:35;;;;;;;2.00;1.90;;;;;;;20.53;38.47;96207.13;6160166;28;103201;-69
2022/10/06 02:05:38;;;;;;;2.00;1.87;;;;;;;20.53;38.34;96204.47;6171085;28;103495;-69
2022/10/06 02:08:43;;;;;;;2.50;2.10;;;;;;;20.53;38.60;96209.78;6160179;28;103757;-70
2022/10/06 02:11:46;;;;;;;1.60;1.50;;;;;;;20.49;38.88;96209.50;6164833;28;103269;-69
2022/10/06 02:14:49;;;;;;;1.67;1.57;;;;;;;20.52;38.75;96216.16;6180344;28;103216;-69
2022/10/06 02:17:52;;;;;;;2.03;1.70;;;;;;;20.52;38.50;96221.47;6166648;28;103068;-68
2022/10/06 02:20:55;;;;;;;2.83;2.20;;;;;;;20.49;38.75;96212.16;6169160;28;103473;-69
2022/10/06 02:24:00;;;;;;;1.90;1.80;;;;;;;20.52;38.83;96211.63;6154721;28;103075;-69
2022/10/06 02:27:04;;;;;;;1.70;1.60;;;;;;;20.50;38.66;96212.94;6171332;28;103113;-69
2022/10/06 02:30:08;;;;;;;2.20;2.00;;;;;;;20.47;38.73;96202.84;6161603;28;103181;-69
2022/10/06 02:33:11;;;;;;;2.27;2.07;;;;;;;20.48;38.80;96202.56;6149057;28;103573;-69
2022/10/06 02:36:15;;;;;;;2.20;2.03;;;;;;;20.50;38.60;96204.97;6166436;28;104140;-68
2022/10/06 02:39:20;;;;;;;1.70;1.60;;;;;;;20.47;38.80;96208.16;6172885;28;103543;-69
2022/10/06 02:42:23;;;;;;;1.60;1.50;;;;;;;20.51;38.80;96209.25;6161111;28;103433;-69
2022/10/06 02:45:26;;;;;;;2.03;1.67;;;;;;;20.54;38.79;96208.72;6160625;28;103263;-69
2022/10/06 02:48:30;;;;;;;2.60;1.50;;;;;;;20.53;38.91;96210.56;6171279;28;103850;-68
2022/10/06 02:51:34;;;;;;;3.93;2.40;;;;;;;20.56;38.59;96211.91;6164116;28;103504;-68
2022/10/06 02:54:38;;;;;;;5.17;3.70;;;;;;;20.61;39.57;96212.69;6157122;28;103218;-67
2022/10/06 02:57:41;;;;;;;4.70;4.30;;;;;;;20.71;38.97;96213.75;6157762;28;105351;-68
2022/10/06 03:00:44;;;;;;;7.00;6.40;;;;;;;20.67;38.77;96215.34;6172081;28;104146;-68
2022/10/06 03:03:47;;;;;;;8.00;7.30;;;;;;;20.67;38.54;96221.47;6178990;28;104180;-68
2022/10/06 03:06:50;;;;;;;8.97;8.00;;;;;;;20.60;38.34;96216.41;6155351;28;104219;-67
2022/10/06 03:09:55;;;;;;;12.30;11.00;;;;;;;20.57;38.35;96219.59;6167118;28;104499;-68
2022/10/06 03:12:58;;;;;;;11.00;9.90;;;;;;;20.60;38.61;96223.59;6159141;28;104246;-69
2022/10/06 03:16:01;;;;;;;7.53;6.87;;;;;;;20.59;38.87;96222.78;6166386;28;103605;-69
2022/10/06 03:19:06;;;;;;;21.97;8.53;;;;;;;20.58;38.74;96215.88;6160545;28;105512;-68
2022/10/06 03:22:09;;;;;;;8.63;7.80;;;;;;;20.58;38.64;96213.22;6166417;28;104224;-69
2022/10/06 03:25:14;;;;;;;10.70;7.13;;;;;;;20.59;38.56;96216.69;6161457;28;106782;-68
2022/10/06 03:28:16;;;;;;;8.30;6.63;;;;;;;20.61;38.92;96219.88;6164129;28;103950;-67
2022/10/06 03:31:20;;;;;;;12.13;5.30;;;;;;;20.70;38.51;96215.63;6151391;28;105786;-70
2022/10/06 03:34:23;;;;;;;12.20;6.30;;;;;;;20.66;37.75;96205.75;6168489;28;104184;-69
2022/10/06 03:37:28;;;;;;;27.73;23.73;;;;;;;20.59;37.50;96208.69;6174004;28;105260;-70
2022/10/06 03:40:32;;;;;;;20.87;18.67;;;;;;;20.56;37.53;96203.91;6169196;28;103303;-71
2022/10/06 03:43:36;;;;;;;11.50;10.40;;;;;;;20.24;37.04;96204.97;6171047;28;103560;-70
2022/10/06 03:46:39;;;;;;;12.90;9.87;;;;;;;20.29;37.75;96199.66;6175011;28;104017;-70
2022/10/06 03:49:42;;;;;;;12.60;10.50;;;;;;;20.36;37.21;96195.94;6180236;28;103332;-68
2022/10/06 03:52:50;;;;;;;19.10;17.30;;;;;;;20.36;37.32;96198.63;6172739;28;103974;-69
2022/10/06 03:56:01;;;;;;;23.67;21.60;;;;;;;20.35;36.99;96191.69;6172310;28;103195;-70
2022/10/06 03:59:06;;;;;;;23.27;21.00;;;;;;;20.32;36.78;96196.47;6177115;28;103206;-70
2022/10/06 04:02:10;;;;;;;25.17;23.07;;;;;;;20.37;36.70;96197.56;6173259;28;103250;-69
2022/10/06 04:05:13;;;;;;;31.20;28.40;;;;;;;20.21;36.93;96200.16;6166263;28;103272;-71
2022/10/06 04:08:16;;;;;;;26.60;24.30;;;;;;;20.11;36.79;96194.84;6170633;28;103212;-67
2022/10/06 04:11:23;;;;;;;15.00;11.73;;;;;;;19.68;37.03;96191.59;6175469;28;103188;-66
2022/10/06 04:14:26;;;;;;;11.50;10.40;;;;;;;19.88;37.05;96190.03;6182736;28;104406;-66
2022/10/06 04:17:29;;;;;;;9.13;8.30;;;;;;;20.02;36.78;96199.09;6172511;28;104217;-67
2022/10/06 04:20:32;;;;;;;10.73;9.70;;;;;;;20.03;36.48;96206.78;6182942;28;103259;-67
2022/10/06 04:23:35;;;;;;;9.23;7.40;;;;;;;20.05;36.61;96201.22;6184380;28;103269;-66
2022/10/06 04:26:43;;;;;;;7.80;6.63;;;;;;;20.07;36.51;96200.94;6178397;28;103504;-66
2022/10/06 04:29:46;;;;;;;18.53;14.90;;;;;;;20.02;36.51;96202.53;6184356;28;103275;-66
2022/10/06 04:32:50;;;;;;;26.00;23.50;;;;;;;20.03;36.56;96203.34;6183780;28;103239;-66
2022/10/06 04:35:59;;;;;;;29.73;27.00;;;;;;;20.04;36.48;96212.91;6183669;28;103268;-66
2022/10/06 04:39:04;;;;;;;21.83;16.30;;;;;;;20.03;36.38;96211.31;6173998;28;103906;-66
2022/10/06 04:42:08;;;;;;;14.73;11.40;;;;;;;19.98;36.32;96211.28;6184804;28;104182;-66
2022/10/06 04:45:12;;;;;;;11.57;10.37;;;;;;;19.98;36.13;96211.28;6184626;28;104282;-66
2022/10/06 04:48:15;;;;;;;11.73;8.50;;;;;;;20.00;36.14;96219.81;6183755;28;103108;-65
2022/10/06 04:51:18;;;;;;;16.50;14.80;;;;;;;19.91;36.31;96224.03;6172341;28;103228;-67
2022/10/06 04:54:21;;;;;;;25.80;23.13;;;;;;;19.93;36.21;96220.03;6183394;28;103083;-67
2022/10/06 04:57:26;;;;;;;35.70;32.17;;;;;;;19.91;36.07;96224.03;6184106;28;103270;-66
2022/10/06 05:00:29;;;;;;;19.37;15.43;;;;;;;19.90;36.17;96225.88;6179620;28;103181;-67
2022/10/06 05:03:32;;;;;;;11.80;10.60;;;;;;;19.90;36.01;96225.88;6179102;28;104167;-66
2022/10/06 05:06:37;;;;;;;15.60;10.27;;;;;;;19.88;36.12;96230.66;6184350;28;103019;-67
2022/10/06 05:09:40;;;;;;;12.47;11.37;;;;;;;19.87;36.08;96237.03;6183797;28;104079;-67
2022/10/06 05:12:44;;;;;;;11.27;9.90;;;;;;;19.87;36.01;96234.38;6174659;28;104048;-67
2022/10/06 05:15:55;;;;;;;7.80;7.10;;;;;;;19.86;36.25;96235.44;6183697;28;104177;-67
2022/10/06 05:18:58;;;;;;;11.07;7.43;;;;;;;19.89;36.14;96234.13;6183505;28;103072;-67
2022/10/06 05:22:01;;;;;;;8.73;7.30;;;;;;;19.88;36.14;96232.53;6183598;28;103957;-67
2022/10/06 05:25:05;;;;;;;11.13;7.67;;;;;;;19.87;35.86;96230.94;6173354;28;104378;-67
2022/10/06 05:28:09;;;;;;;8.13;7.30;;;;;;;19.87;35.99;96226.41;6183751;28;103396;-68
2022/10/06 05:31:14;;;;;;;9.83;6.80;;;;;;;19.52;36.32;96235.06;6183394;28;103135;-66
2022/10/06 05:34:17;;;;;;;7.90;5.13;;;;;;;19.16;36.66;96235.94;6178474;28;103540;-67
2022/10/06 05:37:20;;;;;;;7.80;4.47;;;;;;;19.25;36.44;96239.69;6177427;28;105234;-66
2022/10/06 05:40:23;;;;;;;4.17;3.87;;;;;;;18.89;36.96;96233.38;6183301;28;104521;-67
2022/10/06 05:43:28;;;;;;;4.53;3.33;;;;;;;18.64;37.58;96239.28;6184642;28;104172;-67
2022/10/06 05:46:33;;;;;;;3.50;3.20;;;;;;;18.24;38.16;96230.72;6173331;28;104450;-67
2022/10/06 05:49:36;;;;;;;3.13;2.80;;;;;;;18.19;38.29;96235.19;6183271;28;103218;-66
2022/10/06 05:52:39;;;;;;;3.60;3.30;;;;;;;18.26;38.53;96233.13;6182628;28;106862;-67
2022/10/06 05:55:42;;;;;;;4.10;3.80;;;;;;;18.48;38.00;96236.50;6183270;28;103631;-66
2022/10/06 05:58:48;;;;;;;4.17;3.77;;;;;;;18.79;37.50;96232.25;6172468;28;103158;-66
2022/10/06 06:01:52;;;;;;;6.40;3.03;;;;;;;18.89;37.21;96239.47;6183291;28;103267;-66
2022/10/06 06:04:55;;;;;;;4.30;4.00;;;;;;;18.84;37.62;96234.16;6183254;28;103799;-66
2022/10/06 06:07:58;;;;;;;4.07;3.60;;;;;;;18.95;37.45;96241.09;6182666;28;103245;-67
2022/10/06 06:11:08;;;;;;;5.53;4.37;;;;;;;19.10;37.52;96245.69;6174550;28;103879;-67
2022/10/06 06:14:14;;;;;;;4.23;3.23;;;;;;;19.31;37.00;96235.97;6183850;28;104993;-66
2022/10/06 06:17:16;;;;;;;3.80;3.50;;;;;;;19.48;37.02;96231.31;6182195;28;103057;-66
2022/10/06 06:20:19;;;;;;;4.60;4.20;;;;;;;19.60;36.95;96241.72;6172773;28;104601;-67
2022/10/06 06:23:23;;;;;;;5.60;5.17;;;;;;;19.68;37.22;96239.38;6181489;28;103048;-66
2022/10/06 06:26:28;;;;;;;5.50;4.33;;;;;;;19.77;37.24;96234.34;6182914;28;104122;-66
2022/10/06 06:29:32;;;;;;;5.57;4.70;;;;;;;19.88;37.30;96237.84;6183057;28;103251;-66
2022/10/06 06:32:35;;;;;;;6.80;5.13;;;;;;;20.01;37.18;96250.63;6171207;28;104212;-67
2022/10/06 06:35:38;;;;;;;5.10;4.43;;;;;;;20.13;37.14;96245.84;6182958;28;103369;-68
2022/10/06 06:38:42;;;;;;;5.20;4.70;;;;;;;20.20;37.27;96245.63;6182547;28;104306;-67
2022/10/06 06:41:46;;;;;;;7.57;5.20;;;;;;;20.20;37.43;96246.41;6182785;28;104175;-67
2022/10/06 06:44:50;;;;;;;6.00;5.03;;;;;;;20.12;37.71;96248.78;6173463;28;105368;-68
2022/10/06 06:47:53;;;;;;;8.77;5.10;;;;;;;20.12;37.69;96249.56;6183899;28;103165;-67
2022/10/06 06:50:57;;;;;;;5.57;5.00;;;;;;;20.22;38.00;96254.91;6187299;28;104154;-67
2022/10/06 06:54:01;;;;;;;5.97;5.20;;;;;;;20.37;37.75;96248.84;6180234;28;103193;-67
2022/10/06 06:57:05;;;;;;;7.27;4.20;;;;;;;20.51;37.59;96249.13;6181873;28;103629;-67
2022/10/06 07:00:11;;;;;;;9.27;5.33;;;;;;;20.60;37.29;96242.22;6186416;28;104036;-67
2022/10/06 07:03:17;;;;;;;5.03;4.53;;;;;;;20.70;37.32;96239.56;6187010;28;102935;-67
2022/10/06 07:06:40;;;;;;;4.87;3.90;;;;;;;20.77;37.00;96234.75;6175864;28;105045;-66
2022/10/06 07:09:43;;;;;;;9.50;6.03;;;;;;;20.71;37.10;96232.38;6186383;28;104261;-66
2022/10/06 07:12:46;;;;;;;6.60;5.30;;;;;;;20.77;37.11;96237.41;6186302;28;103816;-66
2022/10/06 07:25:54;;;;;;;5.37;4.67;;;;;;;20.89;36.80;96223.84;6185936;28;104048;-66
2022/10/06 07:28:58;;;;;;;6.73;4.50;;;;;;;20.98;37.24;96224.06;6174978;28;103081;-66
2022/10/06 07:32:03;;;;;;;5.80;4.23;;;;;;;21.06;36.89;96227.03;6185446;28;103259;-66
2022/10/06 07:35:06;;;;;;;4.80;4.40;;;;;;;20.90;37.24;96217.44;6185260;28;103045;-66
2022/10/06 07:38:10;;;;;;;7.33;4.07;;;;;;;20.88;37.24;96223.03;6185300;28;103106;-66
2022/10/06 07:41:13;;;;;;;4.33;3.93;;;;;;;21.00;37.15;96225.38;6175856;28;103191;-66
2022/10/06 07:44:22;;;;;;;4.27;3.77;;;;;;;21.11;36.83;96218.22;6185395;28;104165;-66
2022/10/06 07:47:26;;;;;;;4.00;3.57;;;;;;;21.19;37.28;96215.03;6186118;28;103249;-66
2022/10/06 07:50:29;;;;;;;4.50;4.10;;;;;;;21.16;36.99;96224.31;6180753;28;103043;-66
2022/10/06 07:53:34;;;;;;;6.43;3.80;;;;;;;21.11;36.78;96218.22;6180180;28;104211;-67
2022/10/06 07:56:37;;;;;;;6.07;5.53;;;;;;;21.08;36.76;96218.78;6184894;28;103556;-66
2022/10/06 07:59:40;;;;;;;6.60;5.70;;;;;;;21.16;37.02;96215.53;6183885;28;103218;-66
2022/10/06 08:02:45;;;;;;;7.47;6.77;;;;;;;21.27;37.01;96214.44;6175231;28;103213;-66
2022/10/06 08:05:49;;;;;;;5.83;5.33;;;;;;;21.34;36.92;96217.63;6185223;28;103109;-65
2022/10/06 08:08:53;;;;;;;5.30;4.80;;;;;;;21.37;36.72;96217.09;6185061;28;104242;-65
2022/10/06 08:11:56;;;;;;;7.17;5.00;;;;;;;21.41;36.84;96217.34;6185359;28;103302;-66
2022/10/06 08:15:01;;;;;;;5.40;4.60;;;;;;;21.44;36.88;96217.59;6174622;28;103249;-66
2022/10/06 08:18:10;;;;;;;13.50;10.57;;;;;;;21.43;37.14;96223.19;6185574;28;103096;-67
2022/10/06 08:21:34;;;;;;;14.73;13.20;;;;;;;21.46;37.13;96212.78;6185503;28;104573;-67
2022/10/06 08:24:37;;;;;;;9.80;8.90;;;;;;;21.51;37.40;96212.78;6180478;28;103243;-66
2022/10/06 08:28:00;;;;;;;8.40;7.60;;;;;;;21.56;36.95;96209.28;6182428;28;105469;-67
2022/10/06 08:31:05;;;;;;;8.40;6.13;;;;;;;21.59;37.26;96207.94;6184644;28;104007;-67
2022/10/06 08:34:10;;;;;;;6.10;5.50;;;;;;;21.47;37.39;96206.38;6184466;28;103323;-66
2022/10/06 08:37:14;;;;;;;6.93;5.50;;;;;;;21.50;37.27;96205.81;6173118;28;103335;-66
2022/10/06 08:40:23;;;;;;;14.57;13.10;;;;;;;21.61;37.04;96201.25;6184854;28;104072;-67
2022/10/06 08:43:27;;;;;;;10.00;9.00;;;;;;;21.68;36.71;96200.97;6184790;28;103226;-66
2022/10/06 08:46:37;;;;;;;8.17;7.40;;;;;;;21.70;36.95;96193.50;6184547;28;103364;-67
2022/10/06 08:49:44;;;;;;;7.40;6.70;;;;;;;21.68;37.28;96196.44;6174591;28;104647;-67
2022/10/06 08:52:57;;;;;;;8.50;6.77;;;;;;;21.65;36.92;96196.19;6184009;28;103088;-66
2022/10/06 08:56:07;;;;;;;7.50;6.40;;;;;;;21.71;37.14;96193.22;6181080;28;103274;-67
2022/10/06 08:59:11;;;;;;;6.43;5.60;;;;;;;21.70;37.01;96199.63;6162520;28;103627;-67
2022/10/06 09:02:26;;;;;;;12.20;6.67;;;;;;;21.72;37.18;96196.69;6183708;28;103085;-68
2022/10/06 09:05:33;;;;;;;7.20;5.67;;;;;;;21.73;36.89;96196.41;6183425;28;103075;-68
2022/10/06 09:08:48;;;;;;;7.03;5.47;;;;;;;21.75;37.32;96196.94;6162579;28;103209;-68
2022/10/06 09:12:03;;;;;;;12.60;5.93;;;;;;;21.72;37.17;96200.16;6148867;28;103213;-68
2022/10/06 09:15:23;;;;;;;8.10;7.30;;;;;;;21.72;38.17;96196.69;6159279;28;103503;-67
2022/10/06 09:18:31;;;;;;;8.73;6.40;;;;;;;21.73;37.56;96185.75;6159558;28;104175;-68
2022/10/06 09:21:56;;;;;;;9.23;5.67;;;;;;;21.78;37.64;96184.94;6149249;28;103987;-68
2022/10/06 09:25:11;;;;;;;6.60;5.73;;;;;;;21.77;38.01;96176.13;6158942;28;104095;-67
2022/10/06 09:28:16;;;;;;;6.80;5.50;;;;;;;21.78;37.84;96179.59;6159304;28;103544;-68
2022/10/06 09:31:22;;;;;;;8.37;5.60;;;;;;;21.78;37.50;96174.28;6158706;28;103230;-67
2022/10/06 09:34:33;;;;;;;5.53;5.00;;;;;;;21.79;37.75;96174.00;6148014;28;102996;-68
2022/10/06 09:37:53;;;;;;;7.80;4.57;;;;;;;21.74;37.91;96163.38;6158834;28;103247;-68
2022/10/06 09:40:56;;;;;;;6.57;5.10;;;;;;;21.70;37.96;96164.19;6159041;28;103135;-67
2022/10/06 09:44:04;;;;;;;7.70;4.40;;;;;;;21.60;38.11;96158.91;6154527;28;102885;-68
2022/10/06 09:47:23;;;;;;;7.93;4.10;;;;;;;21.54;38.41;96162.69;6153107;28;103586;-68
2022/10/06 09:50:28;;;;;;;7.40;4.90;;;;;;;21.61;38.03;96155.97;6158532;28;103374;-68
2022/10/06 09:53:32;;;;;;;6.10;4.37;;;;;;;21.70;37.81;96151.69;6159034;28;103502;-68
2022/10/06 09:56:41;;;;;;;5.40;3.83;;;;;;;21.71;37.58;96147.16;6149058;28;103051;-68
2022/10/06 09:59:46;;;;;;;7.63;3.77;;;;;;;21.71;37.65;96141.81;6158289;28;103270;-68
2022/10/06 10:02:57;;;;;;;4.07;3.30;;;;;;;21.69;37.08;96149.28;6158474;28;103445;-68
2022/10/06 10:06:01;;;;;;;3.57;3.27;;;;;;;21.68;36.98;96147.72;6158888;28;105753;-68
2022/10/06 10:09:23;;;;;;;4.40;3.17;;;;;;;21.71;36.89;96144.47;6148375;28;105465;-68
2022/10/06 10:12:30;;;;;;;3.40;3.03;;;;;;;21.65;37.17;96146.38;6158109;28;104084;-67
2022/10/06 10:15:48;;;;;;;4.93;3.40;;;;;;;21.66;37.56;96144.50;6158833;28;103881;-67
2022/10/06 10:18:52;;;;;;;4.13;3.20;;;;;;;21.63;37.03;96139.72;6149442;28;103576;-67
2022/10/06 10:21:56;;;;;;;6.97;3.60;;;;;;;21.67;36.82;96135.44;6158934;28;104177;-67
2022/10/06 10:25:12;;;;;;;5.10;3.40;;;;;;;21.70;37.23;96135.69;6163188;28;103186;-68
2022/10/06 10:28:45;;;;;;;3.67;2.90;;;;;;;21.68;36.62;96123.72;6162598;28;103408;-68
2022/10/06 10:32:08;;;;;;;3.10;2.73;;;;;;;21.69;36.88;96118.13;6153051;28;104251;-68
2022/10/06 10:35:23;;;;;;;4.10;3.10;;;;;;;21.67;37.09;96116.78;6161079;28;103221;-68
2022/10/06 10:38:39;;;;;;;4.47;3.23;;;;;;;21.64;37.13;96109.34;6162754;28;102684;-68
2022/10/06 10:41:49;;;;;;;6.00;3.20;;;;;;;21.61;37.12;96115.22;6152104;28;104334;-67
2022/10/06 10:44:57;;;;;;;3.90;3.03;;;;;;;21.56;37.67;96104.63;6163102;28;105959;-67
2022/10/06 10:48:03;;;;;;;4.97;3.53;;;;;;;21.38;37.16;96093.53;6162837;28;103032;-68
2022/10/06 10:51:11;;;;;;;6.83;3.13;;;;;;;21.43;37.10;96103.34;6161876;28;103279;-67
2022/10/06 10:54:18;;;;;;;3.00;2.80;;;;;;;21.45;36.97;96096.69;6151657;28;103378;-67
2022/10/06 10:57:32;;;;;;;3.83;3.40;;;;;;;21.49;37.20;96095.06;6162256;28;103129;-68
2022/10/06 11:00:41;;;;;;;3.77;2.63;;;;;;;21.50;37.15;96085.97;6162091;28;103096;-68
2022/10/06 11:03:55;;;;;;;4.13;2.90;;;;;;;21.49;37.47;96087.06;6157112;28;104362;-70
2022/10/06 11:07:14;;;;;;;8.70;3.30;;;;;;;21.48;37.03;96090.78;6160508;28;105556;-70
2022/10/06 11:10:20;;;;;;;4.13;3.10;;;;;;;21.49;37.25;96087.06;6161955;28;103236;-69
2022/10/06 11:13:35;;;;;;;3.50;3.03;;;;;;;21.49;37.41;96076.41;6161717;28;104343;-69
2022/10/06 11:16:46;;;;;;;3.27;2.97;;;;;;;21.50;37.29;96075.34;6152394;28;103156;-69
2022/10/06 11:19:57;;;;;;;3.40;3.10;;;;;;;21.46;37.79;96071.63;6161714;28;103397;-69
2022/10/06 11:23:21;;;;;;;3.33;2.60;;;;;;;21.47;37.22;96067.91;6162524;28;104322;-69
2022/10/06 11:26:39;;;;;;;3.37;3.07;;;;;;;21.46;36.63;96068.97;6156995;28;103440;-67
2022/10/06 11:29:53;;;;;;;4.07;2.80;;;;;;;21.46;37.06;96055.66;6160865;28;103104;-69
2022/10/06 11:33:08;;;;;;;3.63;3.33;;;;;;;21.43;36.97;96053.56;6161135;28;102999;-70
2022/10/06 11:36:19;;;;;;;3.37;3.10;;;;;;;21.42;37.33;96048.50;6160400;28;104383;-69
2022/10/06 11:39:27;;;;;;;3.60;3.30;;;;;;;21.38;37.25;96040.28;6151457;28;105611;-70
2022/10/06 11:42:44;;;;;;;3.40;3.10;;;;;;;21.38;37.57;96044.81;6161038;28;103082;-70
2022/10/06 11:46:01;;;;;;;3.70;3.37;;;;;;;21.37;37.50;96041.34;6162960;28;103331;-70
2022/10/06 11:49:41;;;;;;;3.10;2.90;;;;;;;21.37;37.56;96041.34;6156772;28;103158;-67
2022/10/06 11:52:45;;;;;;;6.13;3.60;;;;;;;21.36;37.99;96025.66;6161014;28;104118;-67
2022/10/06 11:56:08;;;;;;;4.07;3.67;;;;;;;21.35;37.65;96027.53;6160665;28;103053;-66
2022/10/06 11:59:23;;;;;;;4.70;3.80;;;;;;;21.34;37.69;96017.13;6160238;28;103067;-66
2022/10/06 12:02:39;;;;;;;4.47;4.07;;;;;;;21.34;37.78;96028.59;6150573;28;103090;-67
2022/10/06 12:05:42;;;;;;;3.97;3.67;;;;;;;21.33;37.29;96019.00;6160745;28;103990;-67
2022/10/06 12:08:58;;;;;;;4.00;3.60;;;;;;;21.34;37.42;96014.47;6161379;28;103179;-67
2022/10/06 12:12:22;;;;;;;4.50;3.70;;;;;;;21.32;37.57;96016.63;6153882;28;104260;-66
2022/10/06 12:15:45;;;;;;;3.47;3.17;;;;;;;21.31;37.22;96004.38;6160120;28;104118;-66
2022/10/06 12:19:19;;;;;;;4.50;4.10;;;;;;;21.30;37.27;96000.91;6160372;28;103023;-66
2022/10/06 12:22:28;;;;;;;4.70;4.00;;;;;;;21.36;37.59;96002.50;6160589;28;103268;-67
2022/10/06 12:25:40;;;;;;;4.90;3.90;;;;;;;21.32;37.91;95998.78;6151163;28;103878;-66
2022/10/06 12:28:50;;;;;;;3.50;3.20;;;;;;;21.30;37.86;95998.25;6160185;28;103335;-67
2022/10/06 12:32:02;;;;;;;3.40;3.10;;;;;;;21.26;37.70;95996.44;6160606;28;104110;-66
2022/10/06 12:35:18;;;;;;;4.00;3.40;;;;;;;21.29;37.67;95994.00;6150118;28;103259;-66
2022/10/06 12:39:01;;;;;;;3.63;3.33;;;;;;;21.28;37.91;95989.75;6160875;28;104313;-68
2022/10/06 12:42:07;;;;;;;3.50;3.20;;;;;;;21.28;37.49;95987.09;6160551;28;103176;-69
2022/10/06 12:45:16;;;;;;;3.53;3.23;;;;;;;21.32;37.46;95990.78;6160516;28;103301;-69
2022/10/06 12:48:24;;;;;;;3.47;3.17;;;;;;;21.33;37.13;95987.03;6150412;28;104364;-69
2022/10/06 12:51:33;;;;;;;3.43;2.80;;;;;;;21.34;36.78;95983.34;6161242;28;103320;-69
2022/10/06 12:54:45;;;;;;;2.80;2.60;;;;;;;21.34;36.49;95978.03;6160516;28;103330;-69
2022/10/06 12:57:52;;;;;;;3.13;2.90;;;;;;;21.37;36.29;95982.00;6149897;28;102686;-69
2022/10/06 13:01:01;;;;;;;2.73;2.43;;;;;;;21.35;35.94;95962.84;6160595;28;103793;-68
2022/10/06 13:04:04;;;;;;;2.87;2.43;;;;;;;21.35;35.96;95966.28;6159481;28;103077;-69
2022/10/06 13:07:16;;;;;;;2.90;2.60;;;;;;;21.35;35.72;95968.97;6160724;28;103968;-69
2022/10/06 13:10:21;;;;;;;2.40;2.20;;;;;;;21.35;35.75;95963.63;6150507;28;103641;-69
2022/10/06 13:13:25;;;;;;;3.37;2.50;;;;;;;21.34;35.96;95956.72;6159529;28;103058;-69
2022/10/06 13:16:31;;;;;;;2.97;2.43;;;;;;;21.35;35.54;95962.84;6159324;28;103229;-69
2022/10/06 13:19:35;;;;;;;2.63;2.40;;;;;;;21.35;35.51;95963.63;6156464;28;103385;-68
2022/10/06 13:22:40;;;;;;;3.03;2.73;;;;;;;21.32;35.33;95953.50;6154391;28;103153;-68
2022/10/06 13:25:46;;;;;;;2.30;2.10;;;;;;;21.35;35.50;95963.63;6159040;28;103222;-69
2022/10/06 13:28:50;;;;;;;2.00;1.80;;;;;;;21.35;35.53;95954.84;6159803;28;103334;-69
2022/10/06 13:31:54;;;;;;;2.30;2.13;;;;;;;21.33;35.29;95955.09;6150283;28;103954;-68
2022/10/06 13:34:58;;;;;;;2.27;2.00;;;;;;;21.32;35.51;95958.84;6158611;28;103798;-69
2022/10/06 13:38:03;;;;;;;3.70;2.17;;;;;;;21.30;35.04;95955.66;6159326;28;103389;-68
2022/10/06 13:41:22;;;;;;;2.20;2.00;;;;;;;21.29;35.71;95953.28;6158742;28;103147;-69
2022/10/06 13:44:30;;;;;;;3.07;1.90;;;;;;;21.30;35.39;95957.53;6149285;28;103297;-69
2022/10/06 13:47:33;;;;;;;2.00;1.80;;;;;;;21.30;35.41;95954.88;6158436;28;103432;-69
2022/10/06 13:50:40;;;;;;;2.77;2.10;;;;;;;21.29;35.47;95954.06;6159790;28;103133;-69
2022/10/06 13:53:46;;;;;;;2.10;1.90;;;;;;;21.27;35.63;95945.56;6155104;28;103421;-71
2022/10/06 13:56:49;;;;;;;2.10;1.90;;;;;;;21.25;35.26;95947.72;6152372;28;104158;-69
2022/10/06 14:00:03;;;;;;;2.10;1.90;;;;;;;21.25;35.63;95946.94;6159630;28;103213;-69
2022/10/06 14:03:10;;;;;;;3.13;2.03;;;;;;;21.26;35.43;95948.53;6158903;28;103122;-69
2022/10/06 14:06:20;;;;;;;2.20;2.00;;;;;;;21.24;35.25;95956.00;6150402;28;103647;-69
2022/10/06 14:09:26;;;;;;;2.37;2.17;;;;;;;21.24;35.35;95950.66;6158859;28;103087;-70
2022/10/06 14:12:29;;;;;;;2.57;2.30;;;;;;;21.20;35.75;95937.13;6158732;28;103071;-70
2022/10/06 14:15:38;;;;;;;5.43;2.70;;;;;;;21.23;35.18;95955.19;6158644;28;103283;-68
2022/10/06 14:18:44;;;;;;;2.00;1.80;;;;;;;21.23;34.98;95949.88;6146917;28;102988;-70
2022/10/06 14:21:47;;;;;;;2.33;2.13;;;;;;;21.20;35.07;95951.22;6158925;28;103228;-70
2022/10/06 14:24:52;;;;;;;2.23;2.03;;;;;;;21.22;35.32;95948.28;6158234;28;104131;-70
2022/10/06 14:27:55;;;;;;;3.13;2.20;;;;;;;21.21;35.24;95965.31;6153906;28;106278;-69
2022/10/06 14:31:02;;;;;;;2.83;2.47;;;;;;;21.20;35.21;95950.44;6153585;28;103495;-69
2022/10/06 14:34:12;;;;;;;2.70;2.33;;;;;;;21.18;35.25;95948.06;6157820;28;104223;-70
2022/10/06 14:37:15;;;;;;;3.60;2.07;;;;;;;21.20;35.51;95963.75;6158415;28;103819;-70
2022/10/06 14:40:20;;;;;;;2.07;1.90;;;;;;;21.19;35.27;95965.59;6147901;28;103184;-70